Time;durP1;ratioP1;P1;durP2;ratioP2;P2;SDS_P1;SDS_P2;PMS_P1;PMS_P2;Temp;Humidity;BMP_temperature;BMP_pressure;BME280_temperature;BME280_humidity;BME280_pressure;Samples;Min_cycle;Max_cycle;Signal;HPM_P1;HPM_P2
2022/12/24 00:01:19;;;;;;;8.18;2.58;;;8.90;99.90;;;;;;5045881;28;20036;-47
2022/12/24 00:03:45;;;;;;;6.80;2.97;;;8.90;99.90;;;;;;5042785;28;20688;-42
2022/12/24 00:06:20;;;;;;;13.27;2.20;;;8.90;99.90;;;;;;5049023;28;20043;-43
2022/12/24 00:08:46;;;;;;;10.73;2.20;;;8.80;99.90;;;;;;5048868;28;20119;-45
2022/12/24 00:11:13;;;;;;;7.68;2.20;;;8.80;99.90;;;;;;5046620;28;20079;-44
2022/12/24 00:13:39;;;;;;;8.57;2.38;;;8.80;99.90;;;;;;5047592;28;20041;-44
2022/12/24 00:16:05;;;;;;;7.60;2.63;;;8.80;99.90;;;;;;5048174;28;20052;-45
2022/12/24 00:18:31;;;;;;;9.18;2.20;;;8.70;99.90;;;;;;5045924;28;20044;-45
2022/12/24 00:20:57;;;;;;;8.50;2.10;;;8.80;99.90;;;;;;5029406;28;20094;-46
2022/12/24 00:23:23;;;;;;;7.57;2.00;;;8.70;99.90;;;;;;5045607;28;20091;-47
2022/12/24 00:25:49;;;;;;;8.82;2.47;;;8.70;99.90;;;;;;5028460;28;20049;-48
2022/12/24 00:28:15;;;;;;;8.13;2.88;;;8.80;99.90;;;;;;5041676;28;20246;-46
2022/12/24 00:30:42;;;;;;;6.10;1.92;;;8.80;99.90;;;;;;5048481;28;20047;-47
2022/12/24 00:33:08;;;;;;;9.32;2.10;;;8.70;99.90;;;;;;5044663;28;20087;-44
2022/12/24 00:35:35;;;;;;;5.38;1.98;;;8.70;99.90;;;;;;5038282;28;20029;-48
2022/12/24 00:38:02;;;;;;;8.07;2.60;;;8.70;99.90;;;;;;5045911;28;20040;-47
2022/12/24 00:40:29;;;;;;;7.05;2.15;;;8.70;99.90;;;;;;5043678;28;20505;-48
2022/12/24 00:42:55;;;;;;;7.20;2.15;;;8.70;99.90;;;;;;5045664;28;20045;-41
2022/12/24 00:45:21;;;;;;;6.38;2.20;;;8.70;99.90;;;;;;5043133;28;20045;-45
2022/12/24 00:47:47;;;;;;;6.93;2.13;;;8.80;99.90;;;;;;5044636;28;20043;-47
2022/12/24 00:50:13;;;;;;;4.05;1.63;;;8.80;99.90;;;;;;5041020;28;20486;-44
2022/12/24 00:52:39;;;;;;;5.30;1.80;;;8.80;99.90;;;;;;5044851;28;20059;-45
2022/12/24 00:55:05;;;;;;;4.07;1.05;;;8.80;99.90;;;;;;5036735;28;20048;-48
2022/12/24 00:57:31;;;;;;;4.30;0.90;;;8.80;99.90;;;;;;5048352;28;20037;-45
2022/12/24 00:59:56;;;;;;;4.75;1.30;;;8.80;99.90;;;;;;5044115;28;20033;-48
2022/12/24 01:02:22;;;;;;;3.85;1.10;;;8.80;99.90;;;;;;5040759;28;20124;-48
2022/12/24 01:07:32;;;;;;;6.97;1.08;;;8.80;99.90;;;;;;5040380;28;20457;-42
2022/12/24 01:09:58;;;;;;;6.05;1.25;;;8.80;99.90;;;;;;5042869;28;20066;-47
2022/12/24 01:12:24;;;;;;;6.32;2.05;;;8.80;99.90;;;;;;5027544;28;20528;-43
2022/12/24 01:14:50;;;;;;;9.60;2.22;;;8.80;99.90;;;;;;5027447;28;20430;-45
2022/12/24 01:17:16;;;;;;;18.38;3.22;;;8.70;99.90;;;;;;5048112;28;20406;-43
2022/12/24 01:19:42;;;;;;;18.65;2.42;;;8.70;99.90;;;;;;5044738;28;20500;-42
2022/12/24 01:22:07;;;;;;;13.98;2.65;;;8.70;99.90;;;;;;5040547;28;20033;-44
2022/12/24 01:24:33;;;;;;;20.52;3.78;;;8.70;99.90;;;;;;5043615;28;20040;-40
2022/12/24 01:26:59;;;;;;;26.00;3.05;;;8.70;99.90;;;;;;5042263;28;20410;-46
2022/12/24 01:29:25;;;;;;;22.13;3.17;;;8.60;99.90;;;;;;5041861;28;20490;-46
2022/12/24 01:31:50;;;;;;;18.50;2.78;;;8.60;99.90;;;;;;5026208;28;20040;-46
2022/12/24 01:34:16;;;;;;;27.23;3.53;;;8.60;99.90;;;;;;5046154;28;20575;-44
2022/12/24 01:36:42;;;;;;;21.98;3.42;;;8.60;99.90;;;;;;5044837;28;20040;-45
2022/12/24 01:39:07;;;;;;;24.95;3.53;;;8.60;99.90;;;;;;5041135;28;20556;-44
2022/12/24 01:44:30;;;;;;;27.88;3.80;;;8.60;99.90;;;;;;5044299;28;20298;-47
2022/12/24 01:47:12;;;;;;;24.40;3.03;;;8.60;99.90;;;;;;5041556;28;20045;-43
2022/12/24 01:49:42;;;;;;;20.43;2.53;;;8.60;99.90;;;;;;5043302;28;20064;-45
2022/12/24 01:52:36;;;;;;;26.80;3.22;;;8.60;99.90;;;;;;5046089;28;20282;-45
2022/12/24 01:55:15;;;;;;;24.30;2.80;;;8.60;99.90;;;;;;5035833;28;20098;-41
2022/12/24 01:57:53;;;;;;;21.92;2.95;;;8.60;99.90;;;;;;5021096;28;20042;-47
2022/12/24 02:00:20;;;;;;;24.67;3.20;;;8.60;99.90;;;;;;5045184;28;20646;-42
2022/12/24 02:02:48;;;;;;;21.70;3.58;;;8.70;99.90;;;;;;5044597;28;20049;-47
2022/12/24 02:05:36;;;;;;;22.42;5.05;;;8.70;99.90;;;;;;5043152;28;20056;-44
2022/12/24 02:08:03;;;;;;;24.88;3.33;;;8.70;99.90;;;;;;5030269;28;20098;-43
2022/12/24 02:10:29;;;;;;;28.40;2.60;;;8.80;99.90;;;;;;5040844;28;20041;-48
2022/12/24 02:12:56;;;;;;;18.42;3.20;;;8.80;99.90;;;;;;5045604;28;20029;-43
2022/12/24 02:15:22;;;;;;;16.45;2.58;;;8.90;99.90;;;;;;5040292;28;20041;-46
2022/12/24 02:18:00;;;;;;;20.45;2.33;;;8.90;99.90;;;;;;5045731;28;20036;-40
2022/12/24 02:20:56;;;;;;;17.85;2.00;;;8.90;99.90;;;;;;5038521;28;20099;-43
2022/12/24 02:23:41;;;;;;;20.08;2.30;;;8.90;99.90;;;;;;5043133;28;20486;-45
2022/12/24 02:26:12;;;;;;;16.40;1.85;;;9.00;99.90;;;;;;5045746;28;20048;-46
2022/12/24 02:29:17;;;;;;;20.15;2.05;;;9.00;99.90;;;;;;5026311;28;20083;-47
2022/12/24 02:32:01;;;;;;;18.75;2.67;;;9.00;99.90;;;;;;5041812;28;20124;-48
2022/12/24 02:34:37;;;;;;;21.60;3.65;;;9.00;99.90;;;;;;5040389;28;20160;-47
2022/12/24 02:37:23;;;;;;;23.45;2.85;;;9.00;99.90;;;;;;5040009;28;20033;-44
2022/12/24 02:40:13;;;;;;;19.00;3.00;;;9.10;99.90;;;;;;5044546;28;20112;-47
2022/12/24 02:42:46;;;;;;;16.33;2.35;;;9.10;99.90;;;;;;5040671;28;20049;-42
2022/12/24 02:45:19;;;;;;;16.13;2.78;;;9.10;99.90;;;;;;5044769;28;21337;-44
2022/12/24 02:47:46;;;;;;;19.90;3.30;;;9.10;99.90;;;;;;5043396;28;20056;-44
2022/12/24 02:50:14;;;;;;;18.80;2.33;;;9.10;99.90;;;;;;5043265;28;20095;-49
2022/12/24 02:52:43;;;;;;;17.30;3.60;;;9.10;99.90;;;;;;5046438;28;20478;-47
2022/12/24 02:55:16;;;;;;;20.35;2.65;;;9.10;99.90;;;;;;5043242;28;20036;-45
2022/12/24 02:58:12;;;;;;;15.40;2.10;;;9.10;99.90;;;;;;5047006;28;20048;-44
2022/12/24 03:01:14;;;;;;;21.25;2.50;;;9.10;99.90;;;;;;5049301;28;20037;-44
2022/12/24 03:04:06;;;;;;;21.83;3.92;;;9.10;99.90;;;;;;5044976;28;20095;-43
2022/12/24 03:06:35;;;;;;;18.42;2.78;;;9.10;99.90;;;;;;5040171;28;20642;-45
2022/12/24 03:09:56;;;;;;;23.77;4.47;;;9.10;99.90;;;;;;5043691;28;20061;-41
2022/12/24 03:12:37;;;;;;;16.67;2.35;;;9.00;99.90;;;;;;5005066;28;20037;-45
2022/12/24 03:15:05;;;;;;;23.75;2.58;;;9.00;99.90;;;;;;5047918;28;20072;-46
2022/12/24 03:17:35;;;;;;;20.10;3.10;;;9.00;99.90;;;;;;5049632;28;20045;-43
2022/12/24 03:20:02;;;;;;;23.80;2.08;;;9.00;99.90;;;;;;5044726;28;20055;-41
2022/12/24 03:22:31;;;;;;;14.70;2.20;;;8.90;99.90;;;;;;5015091;28;20387;-47
2022/12/24 03:24:57;;;;;;;18.35;3.50;;;8.90;99.90;;;;;;5045513;28;20543;-45
2022/12/24 03:27:26;;;;;;;25.52;2.70;;;8.90;99.90;;;;;;5044326;28;20041;-44
2022/12/24 03:29:52;;;;;;;18.42;3.45;;;8.90;99.90;;;;;;5046530;28;20438;-40
2022/12/24 03:32:29;;;;;;;21.02;3.20;;;8.90;99.90;;;;;;5044581;28;20033;-44
2022/12/24 03:34:55;;;;;;;21.80;3.00;;;8.90;99.90;;;;;;5041578;28;20052;-41
2022/12/24 03:37:21;;;;;;;22.95;2.50;;;8.80;99.90;;;;;;5046596;28;20040;-46
2022/12/24 03:39:47;;;;;;;21.33;3.03;;;8.80;99.90;;;;;;5042903;28;20048;-45
2022/12/24 03:42:13;;;;;;;15.35;2.50;;;8.90;99.90;;;;;;5040565;28;20037;-48
2022/12/24 03:44:38;;;;;;;16.20;3.92;;;8.90;99.90;;;;;;5037032;28;20121;-44
2022/12/24 03:47:04;;;;;;;17.15;2.50;;;8.80;99.90;;;;;;5040996;28;20117;-44
2022/12/24 03:49:30;;;;;;;23.00;3.17;;;8.90;99.90;;;;;;5043871;28;20450;-53
2022/12/24 03:51:55;;;;;;;14.77;2.35;;;8.90;99.90;;;;;;5040144;28;20451;-46
2022/12/24 03:54:21;;;;;;;22.70;2.83;;;8.90;99.90;;;;;;5041237;28;20040;-41
2022/12/24 03:56:47;;;;;;;21.25;3.03;;;8.90;99.90;;;;;;5043740;28;21526;-44
2022/12/24 03:59:12;;;;;;;16.60;2.03;;;8.90;99.90;;;;;;5041499;28;20044;-44
2022/12/24 04:01:38;;;;;;;20.20;3.95;;;9.00;99.90;;;;;;5044083;28;20044;-45
2022/12/24 04:04:04;;;;;;;23.23;3.22;;;9.00;99.90;;;;;;5044683;28;20116;-43
2022/12/24 04:06:30;;;;;;;20.45;2.85;;;9.00;99.90;;;;;;5041945;28;20087;-39
2022/12/24 04:08:58;;;;;;;23.25;3.67;;;9.00;99.90;;;;;;5046175;28;20045;-44
2022/12/24 04:11:23;;;;;;;23.58;3.10;;;9.00;99.90;;;;;;5044283;28;20029;-47
2022/12/24 04:13:49;;;;;;;17.20;2.85;;;8.90;99.90;;;;;;5043822;28;20093;-44
2022/12/24 04:16:16;;;;;;;19.13;2.42;;;8.90;99.90;;;;;;5043190;28;20394;-48
2022/12/24 04:18:42;;;;;;;24.77;2.78;;;8.90;99.90;;;;;;5042130;28;20526;-45
2022/12/24 04:21:08;;;;;;;27.95;3.20;;;8.90;99.90;;;;;;5039339;28;20048;-41
2022/12/24 04:23:36;;;;;;;24.17;3.25;;;8.90;99.90;;;;;;5043898;28;20072;-47
2022/12/24 04:26:04;;;;;;;17.40;3.53;;;8.90;99.90;;;;;;5040431;28;20048;-55
2022/12/24 04:28:31;;;;;;;19.42;2.95;;;8.90;99.90;;;;;;5043568;28;21002;-47
2022/12/24 04:30:58;;;;;;;27.83;2.72;;;8.90;99.90;;;;;;5041623;28;20037;-47
2022/12/24 04:33:24;;;;;;;23.42;2.92;;;8.90;99.90;;;;;;5042554;28;20047;-48
2022/12/24 04:35:49;;;;;;;22.35;3.08;;;8.80;99.90;;;;;;5043863;28;20037;-44
2022/12/24 04:38:15;;;;;;;26.52;3.85;;;8.80;99.90;;;;;;5044902;28;20092;-47
2022/12/24 04:40:41;;;;;;;25.23;4.05;;;8.80;99.90;;;;;;5041540;28;20414;-45
2022/12/24 04:43:06;;;;;;;25.80;2.63;;;8.80;99.90;;;;;;5046093;28;20037;-42
2022/12/24 04:45:32;;;;;;;22.58;2.60;;;8.80;99.90;;;;;;5040260;28;20799;-44
2022/12/24 04:47:58;;;;;;;26.90;3.50;;;8.80;99.90;;;;;;5039432;28;20042;-44
2022/12/24 04:50:23;;;;;;;26.27;2.90;;;8.80;99.90;;;;;;5035180;28;20053;-45
2022/12/24 04:52:49;;;;;;;20.90;2.83;;;8.80;99.90;;;;;;5041126;28;20461;-45
2022/12/24 04:55:15;;;;;;;18.27;3.42;;;8.80;99.90;;;;;;5035839;28;20045;-44
2022/12/24 04:57:40;;;;;;;24.92;3.70;;;8.80;99.90;;;;;;5021651;28;20045;-48
2022/12/24 05:00:07;;;;;;;22.58;4.00;;;8.80;99.90;;;;;;5036656;28;20037;-46
2022/12/24 05:02:33;;;;;;;19.55;2.85;;;8.80;99.90;;;;;;5037923;28;20514;-47
2022/12/24 05:04:58;;;;;;;32.55;3.25;;;8.80;99.90;;;;;;5034747;28;20063;-41
2022/12/24 05:07:24;;;;;;;19.73;2.70;;;8.80;99.90;;;;;;5042722;28;20037;-47
2022/12/24 05:09:50;;;;;;;28.92;3.20;;;8.80;99.90;;;;;;5040504;28;20037;-47
2022/12/24 05:12:16;;;;;;;34.63;5.30;;;8.80;99.90;;;;;;5034701;28;20064;-41
2022/12/24 05:14:41;;;;;;;28.50;3.17;;;8.80;99.90;;;;;;5042542;28;20171;-47
2022/12/24 05:17:07;;;;;;;20.55;2.70;;;8.80;99.90;;;;;;5040699;28;20044;-46
2022/12/24 05:19:33;;;;;;;21.50;3.28;;;8.80;99.90;;;;;;5036697;28;20041;-43
2022/12/24 05:27:48;;;;;;;23.70;2.80;;;8.80;99.90;;;;;;4998273;28;20092;-41
2022/12/24 05:30:14;;;;;;;26.08;3.22;;;8.80;99.90;;;;;;5041481;28;20060;-45
2022/12/24 05:32:40;;;;;;;27.95;5.47;;;8.80;99.90;;;;;;5043822;28;20044;-44
2022/12/24 05:35:06;;;;;;;21.48;2.80;;;8.80;99.90;;;;;;5037886;28;20037;-45
2022/12/24 05:37:31;;;;;;;24.73;3.13;;;8.80;99.90;;;;;;5027991;28;20037;-45
2022/12/24 05:39:57;;;;;;;17.95;3.22;;;8.70;99.90;;;;;;5039177;28;20048;-42
2022/12/24 05:42:22;;;;;;;24.60;3.58;;;8.80;99.90;;;;;;5045243;28;20037;-44
2022/12/24 05:44:48;;;;;;;21.67;2.65;;;8.80;99.90;;;;;;5040988;28;20064;-46
2022/12/24 05:47:14;;;;;;;17.33;2.35;;;8.70;99.90;;;;;;5039680;28;20029;-45
2022/12/24 05:49:39;;;;;;;20.55;2.65;;;8.70;99.90;;;;;;5042518;28;20045;-45
2022/12/24 05:52:05;;;;;;;21.52;2.42;;;8.70;99.90;;;;;;5040133;28;20041;-48
2022/12/24 05:54:31;;;;;;;18.33;2.38;;;8.70;99.90;;;;;;5042323;28;20045;-40
2022/12/24 05:56:56;;;;;;;20.85;2.95;;;8.60;99.90;;;;;;5040836;28;20080;-48
2022/12/24 05:59:22;;;;;;;21.48;3.20;;;8.60;99.90;;;;;;5041715;28;20041;-42
2022/12/24 06:01:47;;;;;;;23.15;2.75;;;8.60;99.90;;;;;;5039136;28;20414;-47
2022/12/24 06:04:13;;;;;;;18.35;2.65;;;8.60;99.90;;;;;;5022653;28;20348;-43
2022/12/24 06:06:39;;;;;;;20.90;2.65;;;8.60;99.90;;;;;;5042225;28;20438;-46
2022/12/24 06:09:04;;;;;;;22.88;2.13;;;8.60;99.90;;;;;;5041319;28;20415;-43
2022/12/24 06:11:30;;;;;;;21.15;2.80;;;8.60;99.90;;;;;;5038155;28;20494;-45
2022/12/24 06:13:56;;;;;;;20.70;2.90;;;8.60;99.90;;;;;;5045109;28;20045;-47
2022/12/24 06:16:24;;;;;;;16.83;1.85;;;8.50;99.90;;;;;;5010146;28;20118;-46
2022/12/24 06:18:50;;;;;;;13.75;1.88;;;8.50;99.90;;;;;;5041141;28;20037;-41
2022/12/24 06:21:16;;;;;;;21.05;2.75;;;8.50;99.90;;;;;;5041950;28;20076;-41
2022/12/24 06:23:44;;;;;;;16.73;3.03;;;8.50;99.90;;;;;;5043637;28;20041;-47
2022/12/24 06:26:13;;;;;;;25.38;2.90;;;8.50;99.90;;;;;;5039853;28;20613;-44
2022/12/24 06:28:39;;;;;;;17.00;3.08;;;8.50;99.90;;;;;;5047144;28;20693;-47
2022/12/24 06:31:09;;;;;;;23.13;3.17;;;8.50;99.90;;;;;;5040584;28;20525;-41
2022/12/24 06:33:35;;;;;;;25.77;3.03;;;8.50;99.90;;;;;;5040381;28;20041;-42
2022/12/24 06:36:01;;;;;;;19.25;2.72;;;8.40;99.90;;;;;;5038048;28;20037;-44
2022/12/24 06:38:29;;;;;;;14.95;2.88;;;8.30;99.90;;;;;;5041891;28;20447;-44
2022/12/24 06:40:54;;;;;;;21.92;2.45;;;8.30;99.90;;;;;;5045936;28;20513;-48
2022/12/24 06:43:20;;;;;;;19.77;2.72;;;8.30;99.90;;;;;;5041855;28;20044;-45
2022/12/24 06:45:46;;;;;;;22.77;2.95;;;8.20;99.90;;;;;;5044576;28;20127;-44
2022/12/24 06:48:13;;;;;;;20.88;2.50;;;8.20;99.90;;;;;;5042065;28;20037;-40
2022/12/24 06:50:39;;;;;;;16.35;2.17;;;8.20;99.90;;;;;;5045781;28;20045;-43
2022/12/24 06:53:04;;;;;;;18.48;2.63;;;8.20;99.90;;;;;;5045467;28;20482;-44
2022/12/24 06:55:31;;;;;;;15.23;2.67;;;8.20;99.90;;;;;;5043332;28;20040;-39
2022/12/24 06:57:57;;;;;;;26.90;2.55;;;8.20;99.90;;;;;;5039991;28;20045;-44
2022/12/24 07:00:23;;;;;;;19.83;3.00;;;8.20;99.90;;;;;;5041487;28;20045;-44
2022/12/24 07:02:48;;;;;;;18.52;2.65;;;8.30;99.90;;;;;;5003923;28;20053;-43
2022/12/24 07:05:15;;;;;;;17.00;2.55;;;8.30;99.90;;;;;;5042761;28;20469;-44
2022/12/24 07:07:42;;;;;;;19.05;2.45;;;8.30;99.90;;;;;;5040702;28;20118;-39
2022/12/24 07:10:14;;;;;;;18.08;2.20;;;8.30;99.90;;;;;;5038261;28;20042;-54
2022/12/24 07:12:40;;;;;;;14.48;2.20;;;8.30;99.90;;;;;;5041037;28;20496;-47
2022/12/24 07:15:06;;;;;;;20.55;2.70;;;8.30;99.90;;;;;;5043840;28;20036;-44
2022/12/24 07:17:32;;;;;;;25.60;3.10;;;8.30;99.90;;;;;;5042783;28;21576;-42
2022/12/24 07:19:58;;;;;;;23.05;3.10;;;8.40;99.90;;;;;;5041979;28;20075;-45
2022/12/24 07:22:23;;;;;;;26.52;2.83;;;8.40;99.90;;;;;;5034106;28;20144;-45
2022/12/24 07:24:49;;;;;;;19.10;3.33;;;8.40;99.90;;;;;;5035364;28;20041;-46
2022/12/24 07:27:15;;;;;;;19.27;3.17;;;8.50;99.90;;;;;;5041315;28;20032;-44
2022/12/24 07:29:40;;;;;;;17.65;2.75;;;8.50;99.90;;;;;;5041060;28;20123;-44
2022/12/24 07:32:06;;;;;;;18.00;3.83;;;8.50;99.90;;;;;;5048680;28;20037;-47
2022/12/24 07:34:32;;;;;;;15.10;2.50;;;8.50;99.90;;;;;;5040798;28;20124;-45
2022/12/24 07:36:58;;;;;;;21.75;4.15;;;8.50;99.90;;;;;;5036384;28;20123;-43
2022/12/24 07:39:24;;;;;;;15.88;2.17;;;8.50;99.90;;;;;;5039805;28;20048;-43
2022/12/24 07:41:49;;;;;;;28.77;6.10;;;8.50;99.90;;;;;;5041168;28;20040;-40
2022/12/24 07:44:15;;;;;;;20.85;3.83;;;8.50;99.90;;;;;;5046049;28;20037;-44
2022/12/24 07:46:42;;;;;;;18.17;2.67;;;8.50;99.90;;;;;;5047648;28;20080;-45
2022/12/24 07:49:09;;;;;;;14.40;3.22;;;8.50;99.90;;;;;;5041019;28;20041;-48
2022/12/24 07:51:35;;;;;;;27.08;3.53;;;8.50;99.90;;;;;;5039357;28;20056;-45
2022/12/24 07:54:01;;;;;;;24.00;2.92;;;8.60;99.90;;;;;;5042138;28;20033;-41
2022/12/24 07:56:26;;;;;;;23.98;3.22;;;8.60;99.90;;;;;;5040000;28;20051;-44
2022/12/24 07:58:52;;;;;;;21.77;3.30;;;8.60;99.90;;;;;;5044814;28;20476;-48
2022/12/24 08:01:18;;;;;;;23.33;2.83;;;8.70;99.90;;;;;;5048883;28;20033;-39
2022/12/24 08:03:44;;;;;;;18.35;2.97;;;8.70;99.90;;;;;;5042157;28;20049;-42
2022/12/24 08:06:10;;;;;;;20.85;3.42;;;8.70;99.90;;;;;;5041118;28;20051;-44
2022/12/24 08:08:36;;;;;;;16.67;2.47;;;8.70;99.90;;;;;;5041735;28;20049;-42
2022/12/24 08:11:04;;;;;;;29.35;4.50;;;8.70;99.90;;;;;;5040353;28;20024;-41
2022/12/24 08:13:31;;;;;;;19.15;2.95;;;8.80;99.90;;;;;;5042078;28;20136;-42
2022/12/24 08:15:57;;;;;;;22.55;3.65;;;8.80;99.90;;;;;;5043458;28;20502;-46
2022/12/24 08:18:23;;;;;;;25.83;4.15;;;8.80;99.90;;;;;;5042162;28;20049;-42
2022/12/24 08:20:49;;;;;;;33.90;4.10;;;8.80;99.90;;;;;;5021528;28;20052;-45
2022/12/24 08:23:15;;;;;;;26.52;3.47;;;8.90;99.90;;;;;;5043332;28;20037;-41
2022/12/24 08:25:43;;;;;;;23.52;3.95;;;8.90;99.90;;;;;;5046180;28;20033;-45
2022/12/24 08:28:09;;;;;;;19.05;2.90;;;8.90;99.90;;;;;;5045498;28;20071;-44
2022/12/24 08:30:35;;;;;;;28.15;5.57;;;8.90;99.90;;;;;;5038502;28;20128;-43
2022/12/24 08:33:01;;;;;;;20.02;2.58;;;9.00;99.90;;;;;;5038419;28;20440;-45
2022/12/24 08:35:27;;;;;;;20.15;4.38;;;9.00;99.90;;;;;;5042446;28;20108;-44
2022/12/24 08:37:52;;;;;;;24.40;4.43;;;9.00;99.90;;;;;;5044860;28;20167;-42
2022/12/24 08:40:18;;;;;;;20.33;3.10;;;9.00;99.90;;;;;;5043581;28;20127;-46
2022/12/24 08:42:44;;;;;;;17.38;2.75;;;9.00;99.90;;;;;;5029175;28;20052;-48
2022/12/24 08:45:10;;;;;;;26.13;3.00;;;9.10;99.90;;;;;;5038667;28;20131;-41
2022/12/24 08:47:37;;;;;;;28.58;3.75;;;9.10;99.90;;;;;;5006855;28;20469;-42
2022/12/24 08:50:04;;;;;;;26.08;4.88;;;9.10;99.90;;;;;;5044029;28;20073;-41
2022/12/24 08:52:30;;;;;;;28.92;3.67;;;9.20;99.90;;;;;;5044273;28;20049;-44
2022/12/24 08:54:56;;;;;;;24.05;3.47;;;9.20;99.90;;;;;;5039970;28;20037;-43
2022/12/24 08:57:21;;;;;;;28.77;2.90;;;9.20;99.90;;;;;;5044532;28;20040;-45
2022/12/24 08:59:47;;;;;;;25.55;2.70;;;9.20;99.90;;;;;;5044018;28;20406;-44
2022/12/24 09:02:13;;;;;;;22.52;3.47;;;9.20;99.90;;;;;;5042419;28;20055;-44
2022/12/24 09:04:39;;;;;;;29.20;3.95;;;9.20;99.90;;;;;;5043700;28;20071;-39
2022/12/24 09:07:05;;;;;;;20.48;2.60;;;9.20;99.90;;;;;;5036890;28;20053;-45
2022/12/24 09:09:31;;;;;;;29.40;3.17;;;9.20;99.90;;;;;;5043045;28;20060;-42
2022/12/24 09:11:57;;;;;;;29.52;3.30;;;9.20;99.90;;;;;;5044390;28;20486;-44
2022/12/24 09:14:22;;;;;;;21.70;3.10;;;9.20;99.90;;;;;;5039443;28;20033;-47
2022/12/24 09:16:48;;;;;;;23.40;2.75;;;9.20;99.90;;;;;;5039814;28;20120;-44
2022/12/24 09:19:14;;;;;;;27.02;3.97;;;9.20;99.90;;;;;;5025894;28;20060;-44
2022/12/24 09:21:39;;;;;;;23.15;2.78;;;9.20;99.90;;;;;;5038123;28;20102;-42
2022/12/24 09:24:05;;;;;;;15.05;2.42;;;9.20;99.90;;;;;;5041606;28;20049;-46
2022/12/24 09:26:31;;;;;;;22.20;2.90;;;9.30;99.90;;;;;;5037914;28;20053;-48
2022/12/24 09:28:59;;;;;;;21.52;3.83;;;9.20;99.90;;;;;;5034819;28;20681;-45
2022/12/24 09:31:25;;;;;;;25.27;2.92;;;9.20;99.90;;;;;;5040325;28;20839;-44
2022/12/24 09:33:52;;;;;;;18.88;2.80;;;9.30;99.90;;;;;;5041444;28;20064;-45
2022/12/24 09:36:19;;;;;;;21.73;2.40;;;9.20;99.90;;;;;;5040694;28;20041;-48
2022/12/24 09:38:45;;;;;;;20.13;2.63;;;9.30;99.90;;;;;;5032959;28;20141;-44
2022/12/24 09:41:45;;;;;;;19.38;2.22;;;9.20;99.90;;;;;;5026901;28;20147;-42
2022/12/24 09:44:41;;;;;;;20.63;3.00;;;9.20;99.90;;;;;;5043026;28;20044;-46
2022/12/24 09:47:37;;;;;;;25.25;2.80;;;9.20;99.90;;;;;;5040672;28;20047;-49
2022/12/24 09:50:27;;;;;;;23.15;4.20;;;9.20;99.90;;;;;;5018220;28;20514;-45
2022/12/24 09:52:53;;;;;;;17.52;2.53;;;9.20;99.90;;;;;;5032043;28;20547;-47
2022/12/24 09:55:55;;;;;;;25.55;3.13;;;9.20;99.90;;;;;;5044260;28;20052;-45
2022/12/24 09:58:27;;;;;;;17.10;2.20;;;9.20;99.90;;;;;;5044154;28;20073;-45
2022/12/24 10:00:54;;;;;;;29.67;3.47;;;9.20;99.90;;;;;;5045385;28;20044;-44
2022/12/24 10:03:20;;;;;;;20.63;2.55;;;9.20;99.90;;;;;;5043921;28;20049;-50
2022/12/24 10:05:48;;;;;;;22.63;4.05;;;9.30;99.90;;;;;;5041068;28;20036;-46
2022/12/24 10:08:20;;;;;;;24.33;4.75;;;9.30;99.90;;;;;;5044010;28;20084;-49
2022/12/24 10:10:50;;;;;;;19.73;2.97;;;9.40;99.90;;;;;;5045997;28;20043;-48
2022/12/24 10:13:43;;;;;;;22.70;3.00;;;9.40;99.90;;;;;;5044226;28;21747;-46
2022/12/24 10:16:12;;;;;;;;;;;9.40;99.90;;;;;;5047200;28;20033;-50
2022/12/24 10:18:55;;;;;;;15.95;3.28;;;9.40;99.90;;;;;;5046515;28;19944;-49
2022/12/24 10:21:41;;;;;;;26.17;4.28;;;9.50;99.90;;;;;;5043110;28;20044;-46
2022/12/24 10:24:17;;;;;;;23.42;3.95;;;9.50;99.90;;;;;;5037317;28;20056;-45
2022/12/24 10:26:53;;;;;;;23.02;3.47;;;9.50;99.90;;;;;;5041292;28;20041;-51
2022/12/24 10:29:46;;;;;;;23.27;3.38;;;9.60;99.90;;;;;;5041708;28;20064;-47
2022/12/24 10:32:20;;;;;;;22.38;3.33;;;9.60;99.90;;;;;;5034082;28;20587;-50
2022/12/24 10:35:01;;;;;;;21.92;3.63;;;9.60;99.90;;;;;;5041640;28;20034;-45
2022/12/24 10:37:28;;;;;;;29.48;4.22;;;9.60;99.90;;;;;;5036667;28;20144;-50
2022/12/24 10:39:55;;;;;;;22.15;3.28;;;9.60;99.90;;;;;;5041855;28;20061;-46
2022/12/24 10:42:26;;;;;;;22.95;4.28;;;9.60;99.90;;;;;;5037999;28;20041;-49
2022/12/24 10:44:56;;;;;;;23.33;2.90;;;9.60;99.90;;;;;;5042030;28;20098;-50
2022/12/24 10:47:23;;;;;;;20.85;3.70;;;9.60;99.90;;;;;;5041377;28;20112;-47
2022/12/24 10:50:01;;;;;;;36.03;5.13;;;9.60;99.90;;;;;;5043467;28;20085;-45
2022/12/24 10:52:34;;;;;;;31.13;3.50;;;9.60;99.90;;;;;;5039939;28;20506;-48
2022/12/24 10:55:18;;;;;;;;;;;9.60;99.90;;;;;;5043396;28;20416;-51
2022/12/24 10:57:44;;;;;;;;;;;9.60;99.90;;;;;;5042280;28;19925;-46
2022/12/24 11:00:20;;;;;;;;;;;9.60;99.90;;;;;;5043043;28;19932;-48
2022/12/24 11:02:46;;;;;;;;;;;9.60;99.90;;;;;;5021126;28;19921;-44
2022/12/24 11:05:32;;;;;;;;;;;9.60;99.90;;;;;;5043556;28;19940;-47
2022/12/24 11:08:00;;;;;;;;;;;9.50;99.90;;;;;;5041037;28;20288;-54
2022/12/24 11:10:26;;;;;;;;;;;9.60;99.90;;;;;;5039328;28;19925;-48
2022/12/24 11:12:52;;;;;;;;;;;9.60;99.90;;;;;;5038583;28;20300;-51
2022/12/24 11:15:19;;;;;;;;;;;9.60;99.90;;;;;;5036637;28;19925;-50
2022/12/24 11:17:55;;;;;;;;;;;9.60;99.90;;;;;;5041787;28;19993;-51
2022/12/24 11:20:23;;;;;;;;;;;9.60;99.90;;;;;;5040414;28;19959;-48
2022/12/24 11:22:49;;;;;;;;;;;9.70;99.90;;;;;;5035596;28;20374;-50
2022/12/24 11:25:19;;;;;;;;;;;9.70;99.90;;;;;;5038492;28;20000;-48
2022/12/24 11:27:48;;;;;;;;;;;9.70;99.90;;;;;;5039451;28;19920;-47
2022/12/24 11:30:14;;;;;;;;;;;9.70;99.90;;;;;;5041925;28;19923;-59
2022/12/24 11:32:44;;;;;;;;;;;9.70;99.90;;;;;;5038807;28;20011;-46
2022/12/24 11:35:22;;;;;;;;;;;9.70;99.90;;;;;;5039555;28;19916;-51
2022/12/24 11:38:08;;;;;;;;;;;9.80;99.90;;;;;;5042219;28;19925;-50
2022/12/24 11:40:41;;;;;;;;;;;9.70;99.90;;;;;;5035794;28;20441;-49
2022/12/24 11:43:18;;;;;;;;;;;9.70;99.90;;;;;;5044039;28;19925;-51
2022/12/24 11:45:47;;;;;;;;;;;9.80;99.90;;;;;;5041744;28;20291;-45
2022/12/24 11:48:30;;;;;;;;;;;9.80;99.90;;;;;;5028507;28;20051;-49
2022/12/24 11:50:57;;;;;;;;;;;9.80;99.90;;;;;;5048277;28;19925;-48
2022/12/24 11:53:25;;;;;;;;;;;9.80;99.90;;;;;;5039533;28;20389;-49
2022/12/24 11:55:59;;;;;;;;;;;9.80;99.90;;;;;;5046147;28;19975;-49
2022/12/24 11:58:46;;;;;;;;;;;9.80;99.90;;;;;;5040225;28;20373;-41
2022/12/24 12:01:30;;;;;;;;;;;9.80;99.90;;;;;;5043111;28;20013;-49
2022/12/24 12:03:59;;;;;;;;;;;9.90;99.90;;;;;;5027883;28;19930;-45
2022/12/24 12:06:27;;;;;;;;;;;9.90;99.90;;;;;;5043766;28;19933;-51
2022/12/24 12:08:55;;;;;;;;;;;9.90;99.90;;;;;;5045400;28;19932;-51
2022/12/24 12:11:22;;;;;;;;;;;9.90;99.90;;;;;;5042229;28;20404;-46
2022/12/24 12:13:48;;;;;;;;;;;10.00;99.90;;;;;;5043423;28;19964;-50
2022/12/24 12:16:13;;;;;;;;;;;10.10;99.90;;;;;;5036884;28;19963;-45
2022/12/24 12:18:41;;;;;;;;;;;10.10;99.90;;;;;;5043769;28;19917;-43
2022/12/24 12:21:18;;;;;;;;;;;10.10;99.90;;;;;;5040796;28;19967;-49
2022/12/24 12:23:46;;;;;;;;;;;10.20;99.90;;;;;;5044844;28;19916;-42
2022/12/24 12:26:17;;;;;;;;;;;10.20;99.90;;;;;;5038230;28;19921;-46
2022/12/24 12:28:48;;;;;;;;;;;10.20;99.90;;;;;;5040663;28;20011;-49
2022/12/24 12:31:49;;;;;;;;;;;10.10;99.90;;;;;;5030019;28;19925;-42
2022/12/24 12:34:21;;;;;;;;;;;10.10;99.90;;;;;;4983349;28;19950;-43
2022/12/24 12:37:07;;;;;;;;;;;10.10;99.90;;;;;;5025592;28;20007;-43
2022/12/24 12:39:33;;;;;;;;;;;10.10;99.90;;;;;;5032340;28;19920;-46
2022/12/24 12:42:18;;;;;;;;;;;10.10;99.90;;;;;;5037292;28;20342;-45
2022/12/24 12:44:56;;;;;;;;;;;10.10;99.90;;;;;;5034408;28;20996;-46
2022/12/24 12:47:24;;;;;;;;;;;10.10;99.90;;;;;;5039592;28;19925;-44
2022/12/24 12:49:56;;;;;;;;;;;10.20;99.90;;;;;;5008023;28;19921;-42
2022/12/24 12:52:48;;;;;;;;;;;10.20;99.90;;;;;;5045926;28;20389;-44
2022/12/24 12:55:15;;;;;;;;;;;10.20;99.90;;;;;;5042170;28;19917;-45
2022/12/24 12:57:41;;;;;;;;;;;10.20;99.90;;;;;;5041974;28;20305;-42
2022/12/24 13:00:08;;;;;;;;;;;10.20;99.90;;;;;;5036939;28;19921;-40
2022/12/24 13:02:52;;;;;;;;;;;10.50;99.90;;;;;;5045175;28;19924;-43
2022/12/24 13:05:24;;;;;;;;;;;11.10;99.90;;;;;;5040032;28;19924;-48
2022/12/24 13:07:52;;;;;;;;;;;11.50;99.90;;;;;;5039614;28;19933;-45
2022/12/24 13:10:24;;;;;;;;;;;11.30;99.90;;;;;;5037569;28;20429;-46
2022/12/24 13:12:49;;;;;;;;;;;11.10;99.90;;;;;;5038737;28;19939;-47
2022/12/24 13:15:44;;;;;;;;;;;10.80;99.90;;;;;;5042327;28;19924;-44
2022/12/24 13:18:33;;;;;;;;;;;10.70;99.90;;;;;;4956609;28;19918;-41
2022/12/24 13:20:58;;;;;;;;;;;10.50;99.90;;;;;;5016424;28;20397;-47
2022/12/24 13:23:25;;;;;;;;;;;10.30;99.90;;;;;;5042660;28;20008;-50
2022/12/24 13:25:55;;;;;;;;;;;10.30;99.90;;;;;;5040581;28;20445;-47
2022/12/24 13:28:23;;;;;;;;;;;10.20;99.90;;;;;;5036978;28;19935;-47
2022/12/24 13:31:01;;;;;;;;;;;10.10;99.90;;;;;;5040470;28;19921;-45